createdAt,value
2022-08-27T00:00:17.908Z,99519.17
2022-08-27T00:03:22.722Z,99522.77
2022-08-27T00:06:30.221Z,99532.53
2022-08-27T00:09:36.770Z,99528.34
2022-08-27T00:12:43.361Z,99527.22
2022-08-27T00:15:43.147Z,99528.62
2022-08-27T00:18:49.966Z,99528.32
2022-08-27T00:21:57.133Z,99520.78
2022-08-27T00:25:04.199Z,99522.71
2022-08-27T00:28:04.236Z,99524.06
2022-08-27T00:30:56.187Z,99518.49
2022-08-27T00:34:00.891Z,99519.86
2022-08-27T00:37:05.786Z,99519.59
2022-08-27T00:40:10.950Z,99523.24
2022-08-27T00:43:17.167Z,99520.58
2022-08-27T00:46:39.024Z,99520.04
2022-08-27T00:50:13.782Z,99518.06
2022-08-27T00:53:29.724Z,99521.37
2022-08-27T00:56:39.296Z,99522.47
2022-08-27T00:59:45.553Z,99519.13
2022-08-27T01:02:53.098Z,99527.76
2022-08-27T01:05:52.728Z,99513.28
2022-08-27T01:09:06.771Z,99516.31
2022-08-27T01:12:12.476Z,99516.02
2022-08-27T01:15:23.076Z,99521.55
2022-08-27T01:18:29.308Z,99520.44
2022-08-27T01:21:42.788Z,99515.12
2022-08-27T01:24:59.753Z,99512.92
2022-08-27T01:28:07.704Z,99515.42
2022-08-27T01:31:12.893Z,99504.85
2022-08-27T01:34:19.677Z,99510.14
2022-08-27T01:37:25.482Z,99512.12
2022-08-27T01:40:33.070Z,99508.77
2022-08-27T01:43:39.939Z,99514.65
2022-08-27T01:46:46.466Z,99521.08
2022-08-27T01:49:52.126Z,99513.56
2022-08-27T01:52:57.953Z,99523.86
2022-08-27T01:56:03.438Z,99526.37
2022-08-27T01:59:10.357Z,99521.88
2022-08-27T02:02:15.666Z,99523.80
2022-08-27T02:05:22.238Z,99524.70
2022-08-27T02:08:29.367Z,99521.05
2022-08-27T02:11:28.058Z,99520.80
2022-08-27T02:14:33.597Z,99516.62
2022-08-27T02:17:39.167Z,99517.16
2022-08-27T02:20:45.174Z,99515.76
2022-08-27T02:23:51.956Z,99518.27
2022-08-27T02:26:59.683Z,99511.59
2022-08-27T02:30:05.281Z,99519.13
2022-08-27T02:33:04.883Z,99514.95
2022-08-27T02:36:09.389Z,99511.61
2022-08-27T02:39:14.159Z,99521.94
2022-08-27T02:42:20.401Z,99523.89
2022-08-27T02:45:27.272Z,99521.91
2022-08-27T02:48:32.839Z,99525.20
2022-08-27T02:51:38.479Z,99520.98
2022-08-27T02:54:44.824Z,99528.56
2022-08-27T02:57:51.387Z,99523.58
2022-08-27T03:00:58.435Z,99531.84
2022-08-27T03:04:04.064Z,99537.72
2022-08-27T03:07:18.632Z,99534.10
2022-08-27T03:10:18.187Z,99536.08
2022-08-27T03:13:23.924Z,99532.12
2022-08-27T03:16:30.443Z,99536.91
2022-08-27T03:19:35.075Z,99540.22
2022-08-27T03:22:42.048Z,99540.50
2022-08-27T03:25:48.586Z,99544.61
2022-08-27T03:28:55.340Z,99542.08
2022-08-27T03:32:01.099Z,99546.22
2022-08-27T03:35:07.631Z,99546.42
2022-08-27T03:38:13.809Z,99549.20
2022-08-27T03:41:20.526Z,99542.53
2022-08-27T03:44:26.220Z,99545.63
2022-08-27T03:47:32.976Z,99550.08
2022-08-27T03:50:39.065Z,99547.02
2022-08-27T03:53:44.141Z,99552.02
2022-08-27T03:56:49.544Z,99546.49
2022-08-27T03:59:56.492Z,99554.60
2022-08-27T04:03:06.924Z,99548.23
2022-08-27T04:06:12.716Z,99551.08
2022-08-27T04:09:18.098Z,99546.69
2022-08-27T04:12:22.903Z,99541.73
2022-08-27T04:15:29.142Z,99543.98
2022-08-27T04:18:37.723Z,99542.15
2022-08-27T04:21:44.104Z,99546.34
2022-08-27T04:24:51.469Z,99543.30
2022-08-27T04:27:57.823Z,99542.50
2022-08-27T04:31:03.589Z,99542.50
2022-08-27T04:34:09.830Z,99546.44
2022-08-27T04:37:15.126Z,99545.33
2022-08-27T04:40:23.115Z,99546.80
2022-08-27T04:43:28.046Z,99544.27
2022-08-27T04:46:43.197Z,99545.42
2022-08-27T04:49:49.813Z,99542.17
2022-08-27T04:52:55.970Z,99541.33
2022-08-27T04:56:03.172Z,99549.44
2022-08-27T04:59:10.480Z,99538.84
2022-08-27T05:02:17.889Z,99540.81
2022-08-27T05:05:24.280Z,99534.66
2022-08-27T05:08:30.334Z,99536.63
2022-08-27T05:11:39.479Z,99528.52
2022-08-27T05:14:45.052Z,99524.59
2022-08-27T05:17:51.079Z,99527.95
2022-08-27T05:21:00.722Z,99522.89
2022-08-27T05:24:06.105Z,99515.00
2022-08-27T05:27:13.083Z,99519.20
2022-08-27T05:30:19.608Z,99533.11
2022-08-27T05:33:28.327Z,99533.08
2022-08-27T05:36:37.101Z,99521.79
2022-08-27T05:39:36.377Z,99521.79
2022-08-27T05:42:42.641Z,99524.81
2022-08-27T05:45:57.617Z,99539.53
2022-08-27T05:49:04.610Z,99525.19
2022-08-27T05:52:09.553Z,99540.45
2022-08-27T05:55:15.471Z,99530.27
2022-08-27T05:58:23.284Z,99533.89
2022-08-27T06:01:29.862Z,99547.48
2022-08-27T06:04:35.481Z,99551.68
2022-08-27T06:07:42.755Z,99551.27
2022-08-27T06:10:49.748Z,99551.67
2022-08-27T06:13:56.115Z,99557.01
2022-08-27T06:17:02.034Z,99553.20
2022-08-27T06:20:07.666Z,99561.55
2022-08-27T06:23:13.619Z,99559.58
2022-08-27T06:26:21.672Z,99562.05
2022-08-27T06:29:28.378Z,99559.44
2022-08-27T06:32:33.637Z,99545.61
2022-08-27T06:35:39.759Z,99556.70
2022-08-27T06:38:44.863Z,99549.64
2022-08-27T06:41:50.788Z,99548.68
2022-08-27T06:44:57.109Z,99549.01
2022-08-27T06:48:03.136Z,99546.97
2022-08-27T06:51:09.868Z,99539.44
2022-08-27T06:54:18.772Z,99543.11
2022-08-27T06:57:24.037Z,99550.34
2022-08-27T07:00:29.739Z,99544.77
2022-08-27T07:03:35.684Z,99547.19
2022-08-27T07:06:41.690Z,99540.05
2022-08-27T07:09:48.508Z,99540.56
2022-08-27T07:12:55.080Z,99532.53
2022-08-27T07:16:01.109Z,99536.16
2022-08-27T07:19:10.003Z,99525.48
2022-08-27T07:22:17.545Z,99517.19
2022-08-27T07:25:26.289Z,99513.89
2022-08-27T07:28:31.601Z,99514.15
2022-08-27T07:31:37.855Z,99512.08
2022-08-27T07:34:43.258Z,99501.39
2022-08-27T07:37:50.655Z,99505.13
2022-08-27T07:40:59.085Z,99504.61
2022-08-27T07:44:23.239Z,99510.52
2022-08-27T07:47:29.498Z,99509.56
2022-08-27T07:50:36.240Z,99504.63
2022-08-27T07:53:44.059Z,99506.22
2022-08-27T07:56:55.475Z,99503.83
2022-08-27T07:59:35.820Z,99503.13
2022-08-27T08:02:28.612Z,99510.16
2022-08-27T08:05:24.040Z,99500.00
2022-08-27T08:08:30.169Z,99502.29
2022-08-27T08:11:35.870Z,99509.14
2022-08-27T08:14:41.810Z,99509.30
2022-08-27T08:17:49.551Z,99510.13
2022-08-27T08:20:58.523Z,99527.69
2022-08-27T08:24:03.995Z,99527.84
2022-08-27T08:27:07.115Z,99514.86
2022-08-27T08:30:10.117Z,99516.27
2022-08-27T08:33:17.071Z,99515.11
2022-08-27T08:36:27.796Z,99520.30
2022-08-27T08:39:35.275Z,99508.75
2022-08-27T08:43:00.265Z,99518.13
2022-08-27T08:46:05.902Z,99512.86
2022-08-27T08:49:15.491Z,99509.51
2022-08-27T08:52:31.370Z,99503.48
2022-08-27T08:56:01.253Z,99509.70
2022-08-27T08:59:26.251Z,99511.13
2022-08-27T09:02:31.434Z,99510.14
2022-08-27T09:05:38.202Z,99512.50
2022-08-27T09:08:56.043Z,99518.32
2022-08-27T09:12:21.669Z,99510.83
2022-08-27T09:15:36.952Z,99511.08
2022-08-27T09:18:42.904Z,99520.11
2022-08-27T09:22:13.170Z,99520.64
2022-08-27T09:25:36.821Z,99517.16
2022-08-27T09:28:54.763Z,99526.34
2022-08-27T09:32:14.005Z,99529.41
2022-08-27T09:35:24.086Z,99520.69
2022-08-27T09:38:37.527Z,99534.30
2022-08-27T09:41:46.442Z,99530.08
2022-08-27T09:45:00.327Z,99531.23
2022-08-27T09:48:11.990Z,99536.84
2022-08-27T09:51:30.572Z,99536.45
2022-08-27T09:55:01.853Z,99545.07
2022-08-27T09:58:09.426Z,99546.14
2022-08-27T10:01:20.612Z,99545.97
2022-08-27T10:04:29.923Z,99546.73
2022-08-27T10:08:00.514Z,99541.17
2022-08-27T10:11:16.399Z,99539.87
2022-08-27T10:14:40.135Z,99544.94
2022-08-27T10:17:58.973Z,99540.91
2022-08-27T10:21:30.588Z,99541.58
2022-08-27T10:24:53.892Z,99550.73
2022-08-27T10:28:20.050Z,99546.11
2022-08-27T10:31:34.076Z,99543.16
2022-08-27T10:34:58.001Z,99548.22
2022-08-27T10:38:30.598Z,99545.39
2022-08-27T10:41:45.401Z,99557.55
2022-08-27T10:45:07.955Z,99546.39
2022-08-27T10:48:45.822Z,99549.12
2022-08-27T10:51:57.420Z,99561.17
2022-08-27T10:55:17.970Z,99553.78
2022-08-27T10:58:50.759Z,99553.41
2022-08-27T11:02:04.327Z,99554.09
2022-08-27T11:05:14.474Z,99548.63
2022-08-27T11:08:43.432Z,99549.16
2022-08-27T11:12:13.737Z,99547.35
2022-08-27T11:15:20.971Z,99542.16
2022-08-27T11:18:46.742Z,99553.26
2022-08-27T11:21:58.659Z,99552.77
2022-08-27T11:25:38.587Z,99558.80
2022-08-27T11:28:56.932Z,99567.53
2022-08-27T11:32:16.896Z,99565.58
2022-08-27T11:35:58.320Z,99557.83
2022-08-27T11:39:11.941Z,99557.83
2022-08-27T11:42:43.147Z,99554.13
2022-08-27T11:45:52.399Z,99556.12
2022-08-27T11:49:01.474Z,99556.12
2022-08-27T11:52:19.360Z,99543.41
2022-08-27T11:55:38.209Z,99543.41
2022-08-27T11:58:53.490Z,99553.41
2022-08-27T12:01:52.074Z,99556.19
2022-08-27T12:04:57.843Z,99551.78
2022-08-27T12:08:07.132Z,99558.53
2022-08-27T12:11:48.656Z,99554.47
2022-08-27T12:15:06.400Z,99559.53
2022-08-27T12:18:31.951Z,99550.18
2022-08-27T12:21:42.553Z,99550.18
2022-08-27T12:25:10.267Z,99551.01
2022-08-27T12:28:18.941Z,99552.00
2022-08-27T12:31:24.678Z,99545.33
2022-08-27T12:34:42.898Z,99553.41
2022-08-27T12:38:13.933Z,99545.66
2022-08-27T12:41:21.300Z,99546.59
2022-08-27T12:44:43.442Z,99544.31
2022-08-27T12:47:53.517Z,99549.23
2022-08-27T12:50:58.145Z,99547.17
2022-08-27T12:54:58.528Z,99546.39
2022-08-27T12:58:47.380Z,99541.63
2022-08-27T13:02:13.007Z,99539.41
2022-08-27T13:05:19.942Z,99534.58
2022-08-27T13:08:39.808Z,99537.38
2022-08-27T13:11:48.432Z,99534.81
2022-08-27T13:14:57.222Z,99532.06
2022-08-27T13:18:02.381Z,99529.56
2022-08-27T13:21:18.493Z,99526.88
2022-08-27T13:24:25.471Z,99525.19
2022-08-27T13:27:30.248Z,99531.78
2022-08-27T13:30:37.294Z,99527.80
2022-08-27T13:33:52.745Z,99538.52
2022-08-27T13:37:17.864Z,99533.90
2022-08-27T13:40:23.935Z,99530.44
2022-08-27T13:43:30.542Z,99536.82
2022-08-27T13:46:45.511Z,99540.75
2022-08-27T13:49:52.524Z,99556.37
2022-08-27T13:53:15.782Z,99555.37
2022-08-27T13:56:21.610Z,99563.60
2022-08-27T13:59:35.048Z,99559.70
2022-08-27T14:02:55.407Z,99563.19
2022-08-27T14:05:58.997Z,99563.19
2022-08-27T14:09:05.101Z,99546.23
2022-08-27T14:12:19.305Z,99542.58
2022-08-27T14:15:45.896Z,99535.98
2022-08-27T14:18:59.348Z,99535.98
2022-08-27T14:22:00.358Z,99528.92
2022-08-27T14:25:06.445Z,99527.67
2022-08-27T14:28:12.041Z,99523.74
2022-08-27T14:31:19.388Z,99525.91
2022-08-27T14:34:25.143Z,99534.97
2022-08-27T14:37:30.163Z,99535.31
2022-08-27T14:40:29.621Z,99531.73
2022-08-27T14:43:35.659Z,99532.49
2022-08-27T14:46:46.712Z,99526.66
2022-08-27T14:49:56.563Z,99525.81
2022-08-27T14:53:02.847Z,99528.33
2022-08-27T14:56:12.278Z,99530.86
2022-08-27T14:59:18.186Z,99531.62
2022-08-27T15:02:26.738Z,99537.50
2022-08-27T15:05:33.341Z,99530.11
2022-08-27T15:08:40.071Z,99528.45
2022-08-27T15:11:49.470Z,99524.65
2022-08-27T15:14:56.166Z,99523.91
2022-08-27T15:18:01.812Z,99526.98
2022-08-27T15:21:08.651Z,99530.77
2022-08-27T15:24:20.750Z,99529.83
2022-08-27T15:27:32.161Z,99527.50
2022-08-27T15:30:39.153Z,99522.88
2022-08-27T15:33:44.569Z,99518.41
2022-08-27T15:36:50.955Z,99507.79
2022-08-27T15:39:56.361Z,99506.89
2022-08-27T15:43:07.450Z,99494.02
2022-08-27T15:46:12.659Z,99498.67
2022-08-27T15:49:19.977Z,99473.38
2022-08-27T15:52:33.461Z,99494.34
2022-08-27T15:55:37.155Z,99515.44
2022-08-27T15:58:44.180Z,99509.09
2022-08-27T16:01:50.454Z,99505.45
2022-08-27T16:04:56.715Z,99507.69
2022-08-27T16:08:01.647Z,99516.09
2022-08-27T16:11:07.777Z,99518.13
2022-08-27T16:14:14.727Z,99519.28
2022-08-27T16:17:21.639Z,99525.23
2022-08-27T16:20:31.655Z,99521.89
2022-08-27T16:23:37.985Z,99525.66
2022-08-27T16:26:42.799Z,99532.77
2022-08-27T16:29:47.200Z,99541.20
2022-08-27T16:32:52.518Z,99537.07
2022-08-27T16:35:58.467Z,99540.65
2022-08-27T16:39:04.648Z,99541.70
2022-08-27T16:42:10.054Z,99540.62
2022-08-27T16:45:15.336Z,99541.48
2022-08-27T16:48:37.991Z,99548.02
2022-08-27T16:51:45.590Z,99548.48
2022-08-27T16:54:50.628Z,99546.86
2022-08-27T16:57:56.366Z,99552.34
2022-08-27T17:01:05.999Z,99554.58
2022-08-27T17:04:21.550Z,99555.98
2022-08-27T17:07:21.511Z,99557.36
2022-08-27T17:10:28.080Z,99550.94
2022-08-27T17:13:39.472Z,99554.65
2022-08-27T17:16:49.661Z,99564.05
2022-08-27T17:19:56.222Z,99561.46
2022-08-27T17:23:03.088Z,99567.19
2022-08-27T17:26:09.747Z,99562.53
2022-08-27T17:29:16.351Z,99567.55
2022-08-27T17:32:22.613Z,99568.59
2022-08-27T17:35:28.932Z,99567.03
2022-08-27T17:38:36.575Z,99559.17
2022-08-27T17:41:51.051Z,99564.26
2022-08-27T17:44:57.035Z,99562.59
2022-08-27T17:48:06.117Z,99559.89
2022-08-27T17:51:11.664Z,99566.44
2022-08-27T17:54:18.579Z,99569.92
2022-08-27T17:57:45.167Z,99566.31
2022-08-27T18:00:53.537Z,99569.73
2022-08-27T18:04:00.239Z,99568.22
2022-08-27T18:07:05.872Z,99567.60
2022-08-27T18:10:12.613Z,99568.23
2022-08-27T18:13:21.838Z,99566.78
2022-08-27T18:16:27.741Z,99567.32
2022-08-27T18:19:32.732Z,99570.16
2022-08-27T18:22:40.985Z,99572.31
2022-08-27T18:25:39.222Z,99573.57
2022-08-27T18:28:26.646Z,99577.31
2022-08-27T18:31:19.811Z,99576.98
2022-08-27T18:34:18.744Z,99580.47
2022-08-27T18:37:14.640Z,99587.56
2022-08-27T18:40:21.666Z,99592.61
2022-08-27T18:43:28.407Z,99596.38
2022-08-27T18:46:33.596Z,99598.52
2022-08-27T18:49:41.420Z,99601.58
2022-08-27T18:52:46.953Z,99608.94
2022-08-27T18:55:53.322Z,99612.92
2022-08-27T18:58:59.815Z,99615.17
2022-08-27T19:02:05.567Z,99609.84
2022-08-27T19:05:12.339Z,99605.50
2022-08-27T19:08:12.549Z,99610.59
2022-08-27T19:11:19.194Z,99614.47
2022-08-27T19:14:24.837Z,99615.59
2022-08-27T19:17:41.949Z,99612.61
2022-08-27T19:20:48.696Z,99608.73
2022-08-27T19:23:56.571Z,99606.71
2022-08-27T19:27:04.006Z,99605.37
2022-08-27T19:30:10.575Z,99611.91
2022-08-27T19:33:15.855Z,99617.25
2022-08-27T19:36:21.718Z,99617.56
2022-08-27T19:39:27.367Z,99613.80
2022-08-27T19:42:32.812Z,99628.16
2022-08-27T19:45:39.862Z,99617.05
2022-08-27T19:48:44.885Z,99616.30
2022-08-27T19:51:50.609Z,99622.28
2022-08-27T19:55:13.112Z,99624.81
2022-08-27T19:57:57.146Z,99617.29
2022-08-27T20:01:03.408Z,99613.93
2022-08-27T20:04:09.298Z,99624.36
2022-08-27T20:07:15.152Z,99624.12
2022-08-27T20:10:21.633Z,99618.95
2022-08-27T20:13:31.070Z,99620.97
2022-08-27T20:16:26.669Z,99620.95
2022-08-27T20:19:34.102Z,99620.59
2022-08-27T20:22:40.065Z,99619.94
2022-08-27T20:25:49.532Z,99621.22
2022-08-27T20:28:55.219Z,99624.33
2022-08-27T20:32:00.913Z,99624.66
2022-08-27T20:35:06.316Z,99624.96
2022-08-27T20:38:13.172Z,99623.03
2022-08-27T20:41:18.581Z,99622.29
2022-08-27T20:44:24.514Z,99618.97
2022-08-27T20:47:31.125Z,99611.13
2022-08-27T20:50:36.486Z,99606.41
2022-08-27T20:53:42.110Z,99615.08
2022-08-27T20:56:52.826Z,99607.35
2022-08-27T21:00:15.267Z,99605.05
2022-08-27T21:03:21.644Z,99607.13
2022-08-27T21:06:30.029Z,99599.87
2022-08-27T21:09:35.353Z,99605.13
2022-08-27T21:12:43.031Z,99601.56
2022-08-27T21:15:49.794Z,99599.97
2022-08-27T21:19:00.912Z,99601.96
2022-08-27T21:22:07.611Z,99597.76
2022-08-27T21:25:14.338Z,99594.70
2022-08-27T21:28:21.246Z,99598.35
2022-08-27T21:31:27.355Z,99599.66
2022-08-27T21:34:35.520Z,99594.43
2022-08-27T21:37:40.287Z,99597.58
2022-08-27T21:40:46.318Z,99597.01
2022-08-27T21:43:45.918Z,99595.34
2022-08-27T21:46:51.905Z,99591.73
2022-08-27T21:49:57.996Z,99591.44
2022-08-27T21:53:03.215Z,99588.41
2022-08-27T21:56:09.223Z,99591.19
2022-08-27T21:59:16.554Z,99588.67
2022-08-27T22:02:39.243Z,99586.44
2022-08-27T22:05:31.597Z,99587.34
2022-08-27T22:08:36.613Z,99589.59
2022-08-27T22:11:42.669Z,99592.13
2022-08-27T22:14:50.202Z,99596.02
2022-08-27T22:17:56.355Z,99594.38
2022-08-27T22:21:02.925Z,99596.64
2022-08-27T22:24:09.407Z,99590.47
2022-08-27T22:27:14.865Z,99589.64
2022-08-27T22:30:20.512Z,99585.73
2022-08-27T22:33:26.176Z,99586.57
2022-08-27T22:36:30.924Z,99589.91
2022-08-27T22:39:36.004Z,99593.26
2022-08-27T22:42:41.437Z,99590.48
2022-08-27T22:45:47.993Z,99595.48
2022-08-27T22:48:54.426Z,99596.92
2022-08-27T22:52:01.108Z,99606.41
2022-08-27T22:55:07.257Z,99603.87
2022-08-27T22:58:05.748Z,99601.60
2022-08-27T23:01:12.117Z,99594.08
2022-08-27T23:04:18.810Z,99600.23
2022-08-27T23:07:24.028Z,99601.60
2022-08-27T23:10:32.047Z,99597.16
2022-08-27T23:13:38.778Z,99591.54
2022-08-27T23:16:44.398Z,99591.30
2022-08-27T23:19:50.947Z,99598.60
2022-08-27T23:22:51.975Z,99588.77
2022-08-27T23:26:03.168Z,99591.02
2022-08-27T23:29:09.193Z,99587.73
2022-08-27T23:32:13.976Z,99585.45
2022-08-27T23:35:21.837Z,99590.48
2022-08-27T23:38:29.343Z,99592.72
2022-08-27T23:41:35.538Z,99591.60
2022-08-27T23:44:42.463Z,99588.80
2022-08-27T23:47:48.114Z,99590.73
2022-08-27T23:50:54.015Z,99594.93
2022-08-27T23:54:00.810Z,99597.48
2022-08-27T23:57:06.397Z,99606.44
